createdAt,value
2019-05-17T00:01:52.016Z,37.7
2019-05-17T00:04:59.026Z,37.5
2019-05-17T00:08:07.377Z,37.6
2019-05-17T00:11:13.803Z,37.9
2019-05-17T00:14:22.635Z,38.1
2019-05-17T00:17:30.949Z,38.1
2019-05-17T00:20:38.245Z,38.1
2019-05-17T00:23:46.768Z,38.1
2019-05-17T00:26:53.349Z,38.3
2019-05-17T00:29:59.473Z,38.3
2019-05-17T00:33:08.322Z,38.3
2019-05-17T00:36:14.594Z,38.3
2019-05-17T00:39:23.529Z,38.4
2019-05-17T00:42:32.146Z,38.4
2019-05-17T00:45:40.864Z,38.4
2019-05-17T00:48:47.334Z,38.4
2019-05-17T00:51:53.507Z,38.4
2019-05-17T00:55:01.719Z,38.5
2019-05-17T00:58:07.855Z,38.5
2019-05-17T01:01:16.162Z,38.5
2019-05-17T01:04:22.763Z,38.5
2019-05-17T01:07:31.392Z,38.4
2019-05-17T01:10:37.754Z,38.5
2019-05-17T01:13:44.026Z,38.4
2019-05-17T01:16:52.437Z,38.6
2019-05-17T01:20:00.855Z,38.5
2019-05-17T01:23:08.377Z,38.4
2019-05-17T01:26:14.617Z,38.5
2019-05-17T01:29:22.804Z,38.5
2019-05-17T01:32:31.249Z,38.4
2019-05-17T01:35:38.234Z,38.5
2019-05-17T01:38:46.749Z,38.5
2019-05-17T01:41:53.117Z,38.5
2019-05-17T01:45:01.715Z,38.6
2019-05-17T01:48:08.221Z,38.5
2019-05-17T01:51:16.735Z,38.6
2019-05-17T01:54:23.200Z,38.5
2019-05-17T01:57:31.832Z,38.5
2019-05-17T02:00:40.858Z,38.5
2019-05-17T02:03:47.635Z,38.6
2019-05-17T02:06:53.795Z,38.5
2019-05-17T02:10:02.539Z,38.5
2019-05-17T02:13:11.349Z,38.5
2019-05-17T02:16:20.485Z,38.6
2019-05-17T02:19:27.268Z,38.5
2019-05-17T02:22:33.390Z,38.5
2019-05-17T02:25:41.847Z,38.4
2019-05-17T02:28:48.006Z,38.7
2019-05-17T02:31:56.428Z,38.6
2019-05-17T02:35:04.131Z,38.7
2019-05-17T02:38:13.774Z,38.6
2019-05-17T02:41:23.227Z,38.5
2019-05-17T02:44:33.142Z,38.6
2019-05-17T02:47:43.512Z,38.6
2019-05-17T02:50:53.697Z,38.6
2019-05-17T02:54:03.774Z,38.6
2019-05-17T02:57:13.799Z,38.6
2019-05-17T03:00:23.634Z,38.6
2019-05-17T03:03:32.881Z,38.6
2019-05-17T03:06:39.146Z,38.6
2019-05-17T03:09:48.910Z,38.6
2019-05-17T03:13:33.664Z,38.6
2019-05-17T03:16:42.716Z,38.6
2019-05-17T03:19:52.689Z,38.5
2019-05-17T03:23:05.469Z,38.5
2019-05-17T03:26:13.787Z,38.5
2019-05-17T03:29:23.229Z,38.6
2019-05-17T03:32:35.364Z,38.5
2019-05-17T03:35:46.716Z,38.5
2019-05-17T03:38:54.108Z,38.5
2019-05-17T03:42:03.141Z,38.6
2019-05-17T03:45:09.514Z,38.4
2019-05-17T03:48:22.734Z,38.4
2019-05-17T03:51:28.887Z,38.5
2019-05-17T03:54:38.228Z,38.4
2019-05-17T03:57:47.588Z,38.4
2019-05-17T04:00:57.608Z,38.5
2019-05-17T04:04:04.106Z,38.4
2019-05-17T04:07:13.236Z,38.4
2019-05-17T04:10:22.587Z,38.4
2019-05-17T04:13:34.477Z,38.4
2019-05-17T04:16:43.606Z,38.3
2019-05-17T04:19:52.977Z,38.3
2019-05-17T04:22:59.417Z,38.4
2019-05-17T04:26:09.560Z,38.4
2019-05-17T04:29:22.388Z,38.4
2019-05-17T04:32:28.705Z,37.9
2019-05-17T04:35:37.999Z,37.9
2019-05-17T04:38:46.377Z,37.6
2019-05-17T04:41:55.548Z,37.5
2019-05-17T04:45:04.469Z,37.8
2019-05-17T04:48:13.719Z,37.8
2019-05-17T04:51:23.004Z,37.9
2019-05-17T04:54:33.068Z,37.9
2019-05-17T04:57:39.479Z,37.8
2019-05-17T05:00:49.481Z,37.8
2019-05-17T05:03:59.206Z,37.6
2019-05-17T05:07:09.237Z,37.5
2019-05-17T05:10:18.858Z,37.5
2019-05-17T05:13:28.096Z,37.5
2019-05-17T05:16:37.762Z,37.7
2019-05-17T05:19:46.806Z,37.7
2019-05-17T05:22:53.389Z,37.5
2019-05-17T05:25:59.529Z,37.1
2019-05-17T05:29:08.624Z,37.6
2019-05-17T05:32:17.803Z,37.7
2019-05-17T05:35:26.112Z,37.5
2019-05-17T05:38:32.787Z,37.1
2019-05-17T05:41:38.951Z,37.2
2019-05-17T05:44:47.696Z,37.3
2019-05-17T05:47:56.096Z,37.3
2019-05-17T05:51:05.532Z,37.2
2019-05-17T05:54:12.931Z,37.4
2019-05-17T05:57:21.666Z,37.5
2019-05-17T06:00:28.024Z,37.2
2019-05-17T06:03:36.848Z,37.5
2019-05-17T06:06:43.113Z,37.8
2019-05-17T06:09:51.594Z,37.3
2019-05-17T06:12:58.002Z,37.6
2019-05-17T06:16:07.341Z,37
2019-05-17T06:19:17.968Z,37.6
2019-05-17T06:22:26.233Z,37.3
2019-05-17T06:25:34.850Z,37.1
2019-05-17T06:28:43.162Z,37.1
2019-05-17T06:31:51.715Z,36.9
2019-05-17T06:34:58.154Z,37.1
2019-05-17T06:38:06.877Z,37.3
2019-05-17T06:41:15.910Z,36.9
2019-05-17T06:44:22.381Z,36.8
2019-05-17T06:47:28.518Z,37
2019-05-17T06:50:36.649Z,37.2
2019-05-17T06:53:44.249Z,37.6
2019-05-17T06:56:53.078Z,36.9
2019-05-17T07:00:03.083Z,36.3
2019-05-17T07:03:30.100Z,36.5
2019-05-17T07:06:36.349Z,36.4
2019-05-17T07:09:45.495Z,36.2
2019-05-17T07:13:01.843Z,36.2
2019-05-17T07:16:10.184Z,35.7
2019-05-17T07:19:16.457Z,35.6
2019-05-17T07:22:24.787Z,35.3
2019-05-17T07:25:33.506Z,35.1
2019-05-17T07:28:41.107Z,35.4
2019-05-17T07:31:49.658Z,35
2019-05-17T07:34:55.910Z,35.3
2019-05-17T07:38:04.715Z,35.4
2019-05-17T07:41:10.987Z,35.2
2019-05-17T07:44:17.146Z,35.3
2019-05-17T07:47:25.561Z,35.1
2019-05-17T07:50:33.753Z,35
2019-05-17T07:53:40.761Z,35.4
2019-05-17T07:56:46.962Z,35.1
2019-05-17T07:59:55.505Z,35.2
2019-05-17T08:03:04.482Z,35.1
2019-05-17T08:06:11.361Z,35.3
2019-05-17T08:09:20.315Z,35.3
2019-05-17T08:12:26.573Z,35.4
2019-05-17T08:15:35.358Z,35.2
2019-05-17T08:18:44.208Z,35.5
2019-05-17T08:21:50.798Z,35.6
2019-05-17T08:24:56.944Z,35.6
2019-05-17T08:28:05.772Z,35.6
2019-05-17T08:31:15.419Z,35.6
2019-05-17T08:34:23.838Z,35.4
2019-05-17T08:37:30.922Z,35.6
2019-05-17T08:40:37.048Z,36
2019-05-17T08:43:47.760Z,35.6
2019-05-17T08:46:56.894Z,35.7
2019-05-17T08:50:05.103Z,35.8
2019-05-17T08:53:11.473Z,35.4
2019-05-17T08:56:17.607Z,35.6
2019-05-17T08:59:25.914Z,37.1
2019-05-17T09:02:34.579Z,35.3
2019-05-17T09:05:42.405Z,37.5
2019-05-17T09:08:50.691Z,35.1
2019-05-17T09:11:56.886Z,35.4
2019-05-17T09:15:05.299Z,35.3
2019-05-17T09:18:13.786Z,35.3
2019-05-17T09:21:22.619Z,35.4
2019-05-17T09:24:30.725Z,35.3
2019-05-17T09:27:36.854Z,35.5
2019-05-17T09:30:45.311Z,35.6
2019-05-17T09:33:51.481Z,35.6
2019-05-17T09:37:00.137Z,35.8
2019-05-17T09:40:06.732Z,35.6
2019-05-17T09:43:15.622Z,35.5
2019-05-17T09:46:24.325Z,35.5
2019-05-17T09:49:30.589Z,35.6
2019-05-17T09:52:36.733Z,35.3
2019-05-17T09:55:45.483Z,35.6
2019-05-17T09:58:54.104Z,35.5
2019-05-17T10:02:00.734Z,35.7
2019-05-17T10:05:06.946Z,35.8
2019-05-17T10:08:15.515Z,35.7
2019-05-17T10:11:21.727Z,35.9
2019-05-17T10:14:31.534Z,36.2
2019-05-17T10:17:37.746Z,36
2019-05-17T10:20:44.010Z,35.9
2019-05-17T10:23:50.588Z,35.8
2019-05-17T10:26:56.853Z,35.8
2019-05-17T10:30:05.380Z,35.9
2019-05-17T10:33:11.641Z,36.3
2019-05-17T10:36:20.775Z,36.1
2019-05-17T10:39:26.918Z,35.6
2019-05-17T10:42:35.367Z,35.7
2019-05-17T10:45:43.990Z,36.3
2019-05-17T10:48:50.757Z,36.2
2019-05-17T10:51:56.957Z,35.8
2019-05-17T10:55:11.077Z,36.1
2019-05-17T10:58:17.341Z,36.1
2019-05-17T11:01:26.775Z,35.9
2019-05-17T11:04:36.042Z,35.8
2019-05-17T11:07:45.109Z,35.8
2019-05-17T11:10:54.183Z,35.8
2019-05-17T11:14:00.465Z,35.6
2019-05-17T11:17:09.586Z,35.3
2019-05-17T11:20:15.852Z,35.4
2019-05-17T11:23:21.997Z,35.2
2019-05-17T11:26:28.283Z,35.5
2019-05-17T11:29:34.563Z,35.5
2019-05-17T11:32:40.790Z,36.3
2019-05-17T11:35:47.394Z,36.7
2019-05-17T11:38:56.219Z,36.8
2019-05-17T11:42:02.470Z,37
2019-05-17T11:45:08.753Z,37
2019-05-17T11:48:36.223Z,37.5
2019-05-17T11:51:42.391Z,37.4
2019-05-17T11:54:48.660Z,37.8
2019-05-17T11:57:55.972Z,37.5
2019-05-17T12:01:02.443Z,37.1
2019-05-17T12:04:08.777Z,36.9
2019-05-17T12:07:14.915Z,36.6
2019-05-17T12:10:21.111Z,36.8
2019-05-17T12:13:27.524Z,36.6
2019-05-17T12:16:33.848Z,36.3
2019-05-17T12:19:39.996Z,36.3
2019-05-17T12:22:46.190Z,36.3
2019-05-17T12:25:52.313Z,36.2
2019-05-17T12:28:58.454Z,36.1
2019-05-17T12:32:04.777Z,36.4
2019-05-17T12:35:11.082Z,36.3
2019-05-17T12:38:17.318Z,37.1
2019-05-17T12:41:23.486Z,37.2
2019-05-17T12:44:29.835Z,36.5
2019-05-17T12:47:35.988Z,37.3
2019-05-17T12:50:42.195Z,36.7
2019-05-17T12:53:48.520Z,36.8
2019-05-17T12:56:54.723Z,36.9
2019-05-17T13:00:00.850Z,37
2019-05-17T13:03:07.454Z,37.2
2019-05-17T13:06:13.709Z,37
2019-05-17T13:09:22.330Z,37
2019-05-17T13:12:28.502Z,36.9
2019-05-17T13:15:34.648Z,36.7
2019-05-17T13:18:40.840Z,36.7
2019-05-17T13:21:47.077Z,36.7
2019-05-17T13:24:53.378Z,36.3
2019-05-17T13:27:59.867Z,36.2
2019-05-17T13:31:06.457Z,36.2
2019-05-17T13:34:13.009Z,36.6
2019-05-17T13:37:19.477Z,36.4
2019-05-17T13:40:26.136Z,36.4
2019-05-17T13:43:33.150Z,36.8
2019-05-17T13:46:39.993Z,37.2
2019-05-17T13:49:46.182Z,37.2
2019-05-17T13:52:52.859Z,37.3
2019-05-17T13:55:59.177Z,37.4
2019-05-17T13:59:05.814Z,37.5
2019-05-17T14:02:12.341Z,37.5
2019-05-17T14:05:18.756Z,37.3
2019-05-17T14:08:25.220Z,37.5
2019-05-17T14:11:31.588Z,37.5
2019-05-17T14:14:37.967Z,37.4
2019-05-17T14:17:46.975Z,37.2
2019-05-17T14:20:53.567Z,37.1
2019-05-17T14:23:59.753Z,37.1
2019-05-17T14:27:06.194Z,37.2
2019-05-17T14:30:12.866Z,36.9
2019-05-17T14:33:20.094Z,36.9
2019-05-17T14:36:26.586Z,37
2019-05-17T14:39:33.001Z,37.1
2019-05-17T14:42:39.299Z,37.2
2019-05-17T14:45:46.049Z,37.1
2019-05-17T14:48:52.631Z,37.1
2019-05-17T14:51:59.206Z,37.1
2019-05-17T14:55:05.573Z,37.4
2019-05-17T14:58:11.940Z,37.4
2019-05-17T15:01:18.520Z,37.6
2019-05-17T15:04:24.825Z,37.3
2019-05-17T15:07:31.417Z,37.8
2019-05-17T15:10:38.336Z,37.3
2019-05-17T15:13:44.571Z,37.4
2019-05-17T15:16:51.077Z,37.6
2019-05-17T15:19:57.446Z,37.8
2019-05-17T15:23:04.036Z,37.7
2019-05-17T15:26:10.493Z,37.7
2019-05-17T15:29:16.784Z,38.6
2019-05-17T15:32:23.435Z,38
2019-05-17T15:35:29.678Z,38.1
2019-05-17T15:38:36.282Z,38.1
2019-05-17T15:41:42.788Z,38.1
2019-05-17T15:44:49.392Z,37.8
2019-05-17T15:47:56.031Z,37.9
2019-05-17T15:51:02.451Z,37.7
2019-05-17T15:54:09.137Z,37.6
2019-05-17T15:57:15.512Z,37.6
2019-05-17T16:00:21.986Z,37.7
2019-05-17T16:03:28.366Z,37.7
2019-05-17T16:06:34.923Z,37.9
2019-05-17T16:09:41.524Z,37.9
2019-05-17T16:13:03.565Z,38
2019-05-17T16:16:10.008Z,38.1
2019-05-17T16:19:16.293Z,37.9
2019-05-17T16:22:22.747Z,38.1
2019-05-17T16:25:29.165Z,38.2
2019-05-17T16:28:38.986Z,38.2
2019-05-17T16:31:45.438Z,38.2
2019-05-17T16:34:51.813Z,38.2
2019-05-17T16:37:58.277Z,38.1
2019-05-17T16:41:04.767Z,38.2
2019-05-17T16:44:11.023Z,38.3
2019-05-17T16:47:20.658Z,38.2
2019-05-17T16:50:27.127Z,38.3
2019-05-17T16:53:33.499Z,38.3
2019-05-17T16:56:39.745Z,38.1
2019-05-17T16:59:46.132Z,38.2
2019-05-17T17:02:52.727Z,38.1
2019-05-17T17:05:59.080Z,38.3
2019-05-17T17:09:05.647Z,38.3
2019-05-17T17:12:11.867Z,38.4
2019-05-17T17:15:18.402Z,38.4
2019-05-17T17:18:24.667Z,38.4
2019-05-17T17:21:31.215Z,38.4
2019-05-17T17:24:37.517Z,38.4
2019-05-17T17:27:43.977Z,38.5
2019-05-17T17:30:50.414Z,38.5
2019-05-17T17:33:56.906Z,38.6
2019-05-17T17:37:03.405Z,38.6
2019-05-17T17:40:09.863Z,38.6
2019-05-17T17:43:16.319Z,38.6
2019-05-17T17:46:22.697Z,38.7
2019-05-17T17:49:29.036Z,38.6
2019-05-17T17:52:35.743Z,38.6
2019-05-17T17:55:41.991Z,38.6
2019-05-17T17:58:48.373Z,38.6
2019-05-17T18:01:54.652Z,38.7
2019-05-17T18:05:01.014Z,38.7
2019-05-17T18:08:07.791Z,38.6
2019-05-17T18:11:14.106Z,38.7
2019-05-17T18:14:20.407Z,38.6
2019-05-17T18:17:26.993Z,38.7
2019-05-17T18:20:33.622Z,38.8
2019-05-17T18:23:39.854Z,38.6
2019-05-17T18:26:46.222Z,38.7
2019-05-17T18:29:52.571Z,38.8
2019-05-17T18:32:58.769Z,38.8
2019-05-17T18:36:05.517Z,38.8
2019-05-17T18:39:11.813Z,38.7
2019-05-17T18:42:18.258Z,38.8
2019-05-17T18:45:24.837Z,38.8
2019-05-17T18:48:31.402Z,38.8
2019-05-17T18:51:37.871Z,38.9
2019-05-17T18:54:44.165Z,38.7
2019-05-17T18:57:50.815Z,38.7
2019-05-17T19:00:57.227Z,38.8
2019-05-17T19:04:03.879Z,38.9
2019-05-17T19:07:10.319Z,38.8
2019-05-17T19:10:16.561Z,38.9
2019-05-17T19:13:23.073Z,38.9
2019-05-17T19:16:29.437Z,39
2019-05-17T19:19:36.006Z,39.1
2019-05-17T19:22:42.585Z,39.1
2019-05-17T19:25:48.813Z,39.2
2019-05-17T19:28:55.322Z,39.2
2019-05-17T19:32:01.631Z,39.4
2019-05-17T19:35:07.980Z,39.3
2019-05-17T19:38:14.530Z,39.4
2019-05-17T19:41:21.025Z,39.5
2019-05-17T19:44:27.378Z,39.6
2019-05-17T19:47:33.943Z,39.6
2019-05-17T19:50:40.322Z,39.6
2019-05-17T19:53:46.886Z,39.8
2019-05-17T19:56:53.365Z,39.8
2019-05-17T19:59:59.746Z,39.9
2019-05-17T20:03:06.308Z,39.8
2019-05-17T20:06:12.779Z,40
2019-05-17T20:09:19.234Z,39.9
2019-05-17T20:12:25.708Z,39.9
2019-05-17T20:15:35.133Z,40
2019-05-17T20:18:41.519Z,39.9
2019-05-17T20:21:47.795Z,39.9
2019-05-17T20:24:54.159Z,40
2019-05-17T20:28:00.630Z,39.8
2019-05-17T20:31:07.003Z,40
2019-05-17T20:34:13.488Z,40
2019-05-17T20:37:19.724Z,40
2019-05-17T20:40:26.428Z,39.9
2019-05-17T20:43:32.766Z,39.8
2019-05-17T20:46:39.161Z,39.8
2019-05-17T20:49:45.526Z,39.8
2019-05-17T20:52:51.737Z,39.8
2019-05-17T20:55:58.155Z,39.8
2019-05-17T20:59:04.380Z,39.8
2019-05-17T21:02:10.891Z,39.8
2019-05-17T21:05:17.324Z,39.8
2019-05-17T21:08:27.419Z,39.8
2019-05-17T21:11:50.073Z,39.7
2019-05-17T21:14:57.261Z,39.6
2019-05-17T21:18:03.554Z,39.5
2019-05-17T21:21:10.106Z,39.6
2019-05-17T21:24:16.465Z,39.7
2019-05-17T21:27:22.941Z,39.5
2019-05-17T21:30:29.529Z,39.6
2019-05-17T21:33:35.996Z,39.7
2019-05-17T21:36:42.463Z,39.8
2019-05-17T21:39:48.803Z,39.8
2019-05-17T21:42:55.245Z,39.8
2019-05-17T21:46:04.969Z,39.9
2019-05-17T21:49:11.417Z,39.9
2019-05-17T21:52:17.806Z,39.9
2019-05-17T21:55:24.362Z,39.9
2019-05-17T21:58:30.833Z,40.1
2019-05-17T22:01:37.088Z,40
2019-05-17T22:04:43.668Z,40.1
2019-05-17T22:07:50.044Z,40
2019-05-17T22:10:56.508Z,40.1
2019-05-17T22:14:02.975Z,40
2019-05-17T22:17:09.353Z,40.1
2019-05-17T22:20:15.816Z,40
2019-05-17T22:23:22.187Z,39.8
2019-05-17T22:26:28.429Z,40
2019-05-17T22:29:34.837Z,39.8
2019-05-17T22:32:41.189Z,39.9
2019-05-17T22:35:47.564Z,39.7
2019-05-17T22:38:53.799Z,39.9
2019-05-17T22:42:00.200Z,39.6
2019-05-17T22:45:06.678Z,39.7
2019-05-17T22:48:13.139Z,39.7
2019-05-17T22:51:19.608Z,39.5
2019-05-17T22:54:26.061Z,39.7
2019-05-17T22:57:32.448Z,39.7
2019-05-17T23:00:38.712Z,39.4
2019-05-17T23:03:45.083Z,39.7
2019-05-17T23:06:51.600Z,39.4
2019-05-17T23:09:58.024Z,39.6
2019-05-17T23:13:04.501Z,39.7
2019-05-17T23:16:10.757Z,39.6
2019-05-17T23:19:17.195Z,39.6
2019-05-17T23:22:23.614Z,39.5
2019-05-17T23:25:29.953Z,39.7
2019-05-17T23:28:36.344Z,39.6
2019-05-17T23:31:42.653Z,39.7
2019-05-17T23:34:49.388Z,39.5
2019-05-17T23:37:55.757Z,39.6
2019-05-17T23:41:02.136Z,39.7
2019-05-17T23:44:08.499Z,39.5
2019-05-17T23:47:14.791Z,39.7
2019-05-17T23:50:21.233Z,39.7
2019-05-17T23:53:27.421Z,39.8
2019-05-17T23:56:33.848Z,39.8
2019-05-17T23:59:40.320Z,39.9
